sensor_id;sensor_type;location;lat;lon;timestamp;pressure;altitude;pressure_sealevel;temperature;humidity
21658;BME280;10990;48.174;9.782;2023-04-06T00:00:13;95717.72;;;-0.14;100.00
21658;BME280;10990;48.174;9.782;2023-04-06T00:02:41;95716.81;;;-0.13;100.00
21658;BME280;10990;48.174;9.782;2023-04-06T00:05:08;95715.72;;;-0.25;100.00
21658;BME280;10990;48.174;9.782;2023-04-06T00:07:37;95699.28;;;-0.41;100.00
21658;BME280;10990;48.174;9.782;2023-04-06T00:10:04;95699.84;;;-0.52;100.00
21658;BME280;10990;48.174;9.782;2023-04-06T00:12:31;95701.88;;;-0.41;100.00
21658;BME280;10990;48.174;9.782;2023-04-06T00:14:58;95696.91;;;-0.62;100.00
21658;BME280;10990;48.174;9.782;2023-04-06T00:17:27;95699.94;;;-0.87;100.00
21658;BME280;10990;48.174;9.782;2023-04-06T00:19:54;95683.91;;;-0.62;100.00
21658;BME280;10990;48.174;9.782;2023-04-06T00:22:20;95681.94;;;-0.74;100.00
21658;BME280;10990;48.174;9.782;2023-04-06T00:24:49;95672.16;;;-0.69;100.00
21658;BME280;10990;48.174;9.782;2023-04-06T00:27:16;95675.28;;;-0.96;100.00
21658;BME280;10990;48.174;9.782;2023-04-06T00:29:44;95668.41;;;-0.97;100.00
21658;BME280;10990;48.174;9.782;2023-04-06T00:32:11;95656.78;;;-0.89;100.00
21658;BME280;10990;48.174;9.782;2023-04-06T00:34:37;95656.09;;;-0.93;100.00
21658;BME280;10990;48.174;9.782;2023-04-06T00:37:04;95636.47;;;-0.81;100.00
21658;BME280;10990;48.174;9.782;2023-04-06T00:39:31;95637.69;;;-0.88;100.00
21658;BME280;10990;48.174;9.782;2023-04-06T00:42:11;95629.31;;;-0.94;100.00
21658;BME280;10990;48.174;9.782;2023-04-06T00:44:39;95619.69;;;-0.92;100.00
21658;BME280;10990;48.174;9.782;2023-04-06T00:47:06;95614.88;;;-0.99;100.00
21658;BME280;10990;48.174;9.782;2023-04-06T00:49:34;95604.03;;;-0.90;100.00
21658;BME280;10990;48.174;9.782;2023-04-06T00:52:01;95601.00;;;-0.82;100.00
21658;BME280;10990;48.174;9.782;2023-04-06T00:54:28;95616.09;;;-0.89;100.00
21658;BME280;10990;48.174;9.782;2023-04-06T00:57:02;95624.72;;;-1.22;100.00
21658;BME280;10990;48.174;9.782;2023-04-06T00:59:29;95621.94;;;-1.19;100.00
21658;BME280;10990;48.174;9.782;2023-04-06T01:01:58;95603.28;;;-0.92;100.00
21658;BME280;10990;48.174;9.782;2023-04-06T01:04:34;95599.47;;;-1.02;100.00
21658;BME280;10990;48.174;9.782;2023-04-06T01:07:03;95587.38;;;-1.35;100.00
21658;BME280;10990;48.174;9.782;2023-04-06T01:09:39;95586.50;;;-1.36;100.00
21658;BME280;10990;48.174;9.782;2023-04-06T01:12:15;95586.38;;;-1.50;100.00
21658;BME280;10990;48.174;9.782;2023-04-06T01:14:42;95589.97;;;-1.70;100.00
21658;BME280;10990;48.174;9.782;2023-04-06T01:17:10;95588.63;;;-1.60;100.00
21658;BME280;10990;48.174;9.782;2023-04-06T01:19:38;95590.13;;;-1.55;100.00
21658;BME280;10990;48.174;9.782;2023-04-06T01:22:08;95592.31;;;-1.48;100.00
21658;BME280;10990;48.174;9.782;2023-04-06T01:24:52;95596.59;;;-1.64;100.00
21658;BME280;10990;48.174;9.782;2023-04-06T01:27:27;95602.78;;;-2.01;100.00
21658;BME280;10990;48.174;9.782;2023-04-06T01:29:58;95572.81;;;-1.72;100.00
21658;BME280;10990;48.174;9.782;2023-04-06T01:32:38;95556.34;;;-1.54;100.00
21658;BME280;10990;48.174;9.782;2023-04-06T01:35:07;95550.47;;;-1.58;100.00
21658;BME280;10990;48.174;9.782;2023-04-06T01:37:39;95552.44;;;-1.45;100.00
21658;BME280;10990;48.174;9.782;2023-04-06T01:40:12;95548.06;;;-1.45;100.00
21658;BME280;10990;48.174;9.782;2023-04-06T01:42:47;95540.53;;;-1.49;100.00
21658;BME280;10990;48.174;9.782;2023-04-06T01:45:21;95533.75;;;-1.52;100.00
21658;BME280;10990;48.174;9.782;2023-04-06T01:47:49;95544.78;;;-1.82;100.00
21658;BME280;10990;48.174;9.782;2023-04-06T01:50:16;95536.22;;;-1.84;100.00
21658;BME280;10990;48.174;9.782;2023-04-06T01:52:45;95524.50;;;-1.73;100.00
21658;BME280;10990;48.174;9.782;2023-04-06T01:55:14;95520.97;;;-1.72;100.00
21658;BME280;10990;48.174;9.782;2023-04-06T01:58:00;95527.25;;;-1.76;100.00
21658;BME280;10990;48.174;9.782;2023-04-06T02:00:35;95518.63;;;-1.77;100.00
21658;BME280;10990;48.174;9.782;2023-04-06T02:03:01;95527.78;;;-1.87;100.00
21658;BME280;10990;48.174;9.782;2023-04-06T02:05:31;95513.16;;;-1.88;100.00
21658;BME280;10990;48.174;9.782;2023-04-06T02:07:59;95511.91;;;-1.81;100.00
21658;BME280;10990;48.174;9.782;2023-04-06T02:10:34;95515.19;;;-1.95;100.00
21658;BME280;10990;48.174;9.782;2023-04-06T02:13:10;95514.47;;;-1.97;100.00
21658;BME280;10990;48.174;9.782;2023-04-06T02:15:37;95503.94;;;-1.94;100.00
21658;BME280;10990;48.174;9.782;2023-04-06T02:18:04;95505.00;;;-1.98;100.00
21658;BME280;10990;48.174;9.782;2023-04-06T02:20:31;95496.69;;;-2.05;100.00
21658;BME280;10990;48.174;9.782;2023-04-06T02:22:59;95489.63;;;-2.18;100.00
21658;BME280;10990;48.174;9.782;2023-04-06T02:25:26;95476.56;;;-2.17;100.00
21658;BME280;10990;48.174;9.782;2023-04-06T02:27:54;95480.88;;;-2.33;100.00
21658;BME280;10990;48.174;9.782;2023-04-06T02:30:21;95462.47;;;-2.11;100.00
21658;BME280;10990;48.174;9.782;2023-04-06T02:32:49;95461.94;;;-2.18;100.00
21658;BME280;10990;48.174;9.782;2023-04-06T02:35:16;95454.41;;;-2.22;100.00
21658;BME280;10990;48.174;9.782;2023-04-06T02:37:44;95447.72;;;-2.44;100.00
21658;BME280;10990;48.174;9.782;2023-04-06T02:40:11;95440.63;;;-2.40;100.00
21658;BME280;10990;48.174;9.782;2023-04-06T02:42:38;95419.50;;;-2.15;100.00
21658;BME280;10990;48.174;9.782;2023-04-06T02:45:07;95426.63;;;-2.19;100.00
21658;BME280;10990;48.174;9.782;2023-04-06T02:47:41;95428.06;;;-2.13;100.00
21658;BME280;10990;48.174;9.782;2023-04-06T02:50:10;95430.81;;;-2.16;100.00
21658;BME280;10990;48.174;9.782;2023-04-06T02:52:45;95416.47;;;-2.23;100.00
21658;BME280;10990;48.174;9.782;2023-04-06T02:55:12;95395.19;;;-2.13;100.00
21658;BME280;10990;48.174;9.782;2023-04-06T02:57:39;95384.34;;;-2.04;100.00
21658;BME280;10990;48.174;9.782;2023-04-06T03:00:08;95389.03;;;-2.10;100.00
21658;BME280;10990;48.174;9.782;2023-04-06T03:02:39;95387.16;;;-1.91;100.00
21658;BME280;10990;48.174;9.782;2023-04-06T03:05:12;95383.28;;;-1.99;100.00
21658;BME280;10990;48.174;9.782;2023-04-06T03:07:42;95387.66;;;-2.17;100.00
21658;BME280;10990;48.174;9.782;2023-04-06T03:10:16;95390.50;;;-2.22;100.00
21658;BME280;10990;48.174;9.782;2023-04-06T03:12:44;95395.84;;;-2.25;100.00
21658;BME280;10990;48.174;9.782;2023-04-06T03:15:17;95406.81;;;-2.37;100.00
21658;BME280;10990;48.174;9.782;2023-04-06T03:17:50;95404.69;;;-2.46;100.00
21658;BME280;10990;48.174;9.782;2023-04-06T03:20:31;95379.00;;;-2.34;100.00
21658;BME280;10990;48.174;9.782;2023-04-06T03:22:58;95392.41;;;-2.43;100.00
21658;BME280;10990;48.174;9.782;2023-04-06T03:25:28;95375.31;;;-2.12;100.00
21658;BME280;10990;48.174;9.782;2023-04-06T03:28:00;95369.72;;;-2.05;100.00
21658;BME280;10990;48.174;9.782;2023-04-06T03:30:28;95374.53;;;-2.14;100.00
21658;BME280;10990;48.174;9.782;2023-04-06T03:32:55;95376.09;;;-1.94;100.00
21658;BME280;10990;48.174;9.782;2023-04-06T03:35:25;95376.34;;;-1.99;100.00
21658;BME280;10990;48.174;9.782;2023-04-06T03:37:52;95381.19;;;-1.93;100.00
21658;BME280;10990;48.174;9.782;2023-04-06T03:40:19;95381.81;;;-1.88;100.00
21658;BME280;10990;48.174;9.782;2023-04-06T03:42:46;95383.97;;;-1.96;100.00
21658;BME280;10990;48.174;9.782;2023-04-06T03:45:15;95385.28;;;-1.89;100.00
21658;BME280;10990;48.174;9.782;2023-04-06T03:47:49;95387.31;;;-1.94;100.00
21658;BME280;10990;48.174;9.782;2023-04-06T03:50:18;95405.50;;;-2.29;100.00
21658;BME280;10990;48.174;9.782;2023-04-06T03:52:45;95387.06;;;-2.22;100.00
21658;BME280;10990;48.174;9.782;2023-04-06T03:55:12;95380.75;;;-2.01;100.00
21658;BME280;10990;48.174;9.782;2023-04-06T03:57:38;95378.34;;;-2.04;100.00
21658;BME280;10990;48.174;9.782;2023-04-06T04:00:07;95374.97;;;-2.06;100.00
21658;BME280;10990;48.174;9.782;2023-04-06T04:02:40;95373.09;;;-2.03;100.00
21658;BME280;10990;48.174;9.782;2023-04-06T04:05:09;95385.16;;;-2.19;100.00
21658;BME280;10990;48.174;9.782;2023-04-06T04:07:36;95376.25;;;-2.13;100.00
21658;BME280;10990;48.174;9.782;2023-04-06T04:10:05;95373.72;;;-2.15;100.00
21658;BME280;10990;48.174;9.782;2023-04-06T04:12:32;95368.72;;;-2.35;100.00
21658;BME280;10990;48.174;9.782;2023-04-06T04:14:59;95359.31;;;-2.36;100.00
21658;BME280;10990;48.174;9.782;2023-04-06T04:17:26;95366.72;;;-2.63;100.00
21658;BME280;10990;48.174;9.782;2023-04-06T04:19:53;95340.16;;;-2.34;100.00
21658;BME280;10990;48.174;9.782;2023-04-06T04:22:21;95330.06;;;-2.22;100.00
21658;BME280;10990;48.174;9.782;2023-04-06T04:24:48;95331.03;;;-2.08;100.00
21658;BME280;10990;48.174;9.782;2023-04-06T04:27:15;95355.84;;;-2.19;100.00
21658;BME280;10990;48.174;9.782;2023-04-06T04:29:42;95339.25;;;-1.99;100.00
21658;BME280;10990;48.174;9.782;2023-04-06T04:32:11;95346.56;;;-2.08;100.00
21658;BME280;10990;48.174;9.782;2023-04-06T04:34:38;95342.50;;;-1.96;100.00
21658;BME280;10990;48.174;9.782;2023-04-06T04:37:08;95344.31;;;-1.98;100.00
21658;BME280;10990;48.174;9.782;2023-04-06T04:39:47;95347.47;;;-2.09;100.00
21658;BME280;10990;48.174;9.782;2023-04-06T04:42:14;95344.88;;;-2.09;100.00
21658;BME280;10990;48.174;9.782;2023-04-06T04:44:46;95345.53;;;-2.21;100.00
21658;BME280;10990;48.174;9.782;2023-04-06T04:47:19;95340.78;;;-2.13;100.00
21658;BME280;10990;48.174;9.782;2023-04-06T04:49:47;95339.38;;;-2.18;100.00
21658;BME280;10990;48.174;9.782;2023-04-06T04:52:20;95343.66;;;-2.35;100.00
21658;BME280;10990;48.174;9.782;2023-04-06T04:55:20;95341.06;;;-2.35;100.00
21658;BME280;10990;48.174;9.782;2023-04-06T04:57:51;95326.31;;;-2.17;100.00
21658;BME280;10990;48.174;9.782;2023-04-06T05:00:24;95328.16;;;-2.19;100.00
21658;BME280;10990;48.174;9.782;2023-04-06T05:02:55;95329.72;;;-1.99;100.00
21658;BME280;10990;48.174;9.782;2023-04-06T05:05:30;95319.84;;;-1.92;100.00
21658;BME280;10990;48.174;9.782;2023-04-06T05:07:58;95326.84;;;-1.94;100.00
21658;BME280;10990;48.174;9.782;2023-04-06T05:10:38;95331.69;;;-2.04;100.00
21658;BME280;10990;48.174;9.782;2023-04-06T05:13:05;95321.25;;;-1.87;100.00
21658;BME280;10990;48.174;9.782;2023-04-06T05:15:32;95318.25;;;-1.79;100.00
21658;BME280;10990;48.174;9.782;2023-04-06T05:18:12;95320.94;;;-1.81;100.00
21658;BME280;10990;48.174;9.782;2023-04-06T05:20:39;95312.50;;;-1.68;100.00
21658;BME280;10990;48.174;9.782;2023-04-06T05:23:06;95318.69;;;-1.71;100.00
21658;BME280;10990;48.174;9.782;2023-04-06T05:25:34;95317.84;;;-1.71;100.00
21658;BME280;10990;48.174;9.782;2023-04-06T05:28:12;95329.13;;;-1.88;100.00
21658;BME280;10990;48.174;9.782;2023-04-06T05:30:42;95320.75;;;-1.62;100.00
21658;BME280;10990;48.174;9.782;2023-04-06T05:33:10;95308.44;;;-1.42;100.00
21658;BME280;10990;48.174;9.782;2023-04-06T05:35:53;95322.19;;;-1.40;100.00
21658;BME280;10990;48.174;9.782;2023-04-06T05:38:21;95337.66;;;-1.54;100.00
21658;BME280;10990;48.174;9.782;2023-04-06T05:40:49;95333.28;;;-1.38;100.00
21658;BME280;10990;48.174;9.782;2023-04-06T05:43:21;95348.00;;;-1.39;100.00
21658;BME280;10990;48.174;9.782;2023-04-06T05:45:53;95367.75;;;-1.36;100.00
21658;BME280;10990;48.174;9.782;2023-04-06T05:48:20;95369.00;;;-1.27;100.00
21658;BME280;10990;48.174;9.782;2023-04-06T05:50:48;95361.31;;;-1.29;100.00
21658;BME280;10990;48.174;9.782;2023-04-06T05:53:17;95362.00;;;-1.25;100.00
21658;BME280;10990;48.174;9.782;2023-04-06T05:55:51;95370.00;;;-1.30;100.00
21658;BME280;10990;48.174;9.782;2023-04-06T05:58:21;95389.63;;;-1.40;100.00
21658;BME280;10990;48.174;9.782;2023-04-06T06:00:56;95387.34;;;-1.30;100.00
21658;BME280;10990;48.174;9.782;2023-04-06T06:03:24;95387.25;;;-1.13;100.00
21658;BME280;10990;48.174;9.782;2023-04-06T06:05:59;95393.13;;;-0.79;100.00
21658;BME280;10990;48.174;9.782;2023-04-06T06:08:30;95398.03;;;-0.59;100.00
21658;BME280;10990;48.174;9.782;2023-04-06T06:11:01;95409.88;;;-0.39;100.00
21658;BME280;10990;48.174;9.782;2023-04-06T06:13:30;95432.91;;;-0.18;100.00
21658;BME280;10990;48.174;9.782;2023-04-06T06:15:57;95460.34;;;0.16;100.00
21658;BME280;10990;48.174;9.782;2023-04-06T06:18:25;95490.72;;;0.15;100.00
21658;BME280;10990;48.174;9.782;2023-04-06T06:20:53;95519.06;;;0.20;100.00
21658;BME280;10990;48.174;9.782;2023-04-06T06:23:20;95537.69;;;0.57;100.00
21658;BME280;10990;48.174;9.782;2023-04-06T06:25:48;95566.22;;;0.73;100.00
21658;BME280;10990;48.174;9.782;2023-04-06T06:28:15;95586.34;;;0.99;100.00
21658;BME280;10990;48.174;9.782;2023-04-06T06:30:44;95611.44;;;1.15;100.00
21658;BME280;10990;48.174;9.782;2023-04-06T06:33:16;95633.09;;;1.29;100.00
21658;BME280;10990;48.174;9.782;2023-04-06T06:35:43;95638.66;;;1.66;100.00
21658;BME280;10990;48.174;9.782;2023-04-06T06:38:10;95675.59;;;1.87;100.00
21658;BME280;10990;48.174;9.782;2023-04-06T06:40:37;95709.38;;;2.03;100.00
21658;BME280;10990;48.174;9.782;2023-04-06T06:43:04;95749.19;;;2.34;100.00
21658;BME280;10990;48.174;9.782;2023-04-06T06:45:46;95780.53;;;2.61;100.00
21658;BME280;10990;48.174;9.782;2023-04-06T06:48:13;95810.63;;;2.66;100.00
21658;BME280;10990;48.174;9.782;2023-04-06T06:50:40;95825.84;;;3.14;100.00
21658;BME280;10990;48.174;9.782;2023-04-06T06:53:07;95856.03;;;3.45;100.00
21658;BME280;10990;48.174;9.782;2023-04-06T06:55:34;95887.50;;;3.84;100.00
21658;BME280;10990;48.174;9.782;2023-04-06T06:58:01;95908.81;;;3.65;100.00
21658;BME280;10990;48.174;9.782;2023-04-06T07:00:28;95946.88;;;3.56;100.00
21658;BME280;10990;48.174;9.782;2023-04-06T07:02:57;95958.50;;;4.30;100.00
21658;BME280;10990;48.174;9.782;2023-04-06T07:05:23;95963.44;;;4.86;100.00
21658;BME280;10990;48.174;9.782;2023-04-06T07:07:51;95979.38;;;5.32;100.00
21658;BME280;10990;48.174;9.782;2023-04-06T07:10:18;95990.06;;;5.29;100.00
21658;BME280;10990;48.174;9.782;2023-04-06T07:12:45;95999.66;;;5.54;100.00
21658;BME280;10990;48.174;9.782;2023-04-06T07:15:12;95999.50;;;6.63;100.00
21658;BME280;10990;48.174;9.782;2023-04-06T07:17:39;96023.75;;;6.67;100.00
21658;BME280;10990;48.174;9.782;2023-04-06T07:20:09;96025.09;;;7.51;100.00
21658;BME280;10990;48.174;9.782;2023-04-06T07:22:37;96035.72;;;7.72;100.00
21658;BME280;10990;48.174;9.782;2023-04-06T07:25:04;96031.59;;;7.91;100.00
21658;BME280;10990;48.174;9.782;2023-04-06T07:27:31;96025.00;;;8.28;100.00
21658;BME280;10990;48.174;9.782;2023-04-06T07:29:59;96029.69;;;8.25;100.00
21658;BME280;10990;48.174;9.782;2023-04-06T07:32:26;96035.28;;;8.64;100.00
21658;BME280;10990;48.174;9.782;2023-04-06T07:34:53;96041.63;;;8.40;100.00
21658;BME280;10990;48.174;9.782;2023-04-06T07:37:22;96038.69;;;8.96;100.00
21658;BME280;10990;48.174;9.782;2023-04-06T07:39:49;96036.50;;;9.02;100.00
21658;BME280;10990;48.174;9.782;2023-04-06T07:42:16;96035.44;;;9.14;100.00
21658;BME280;10990;48.174;9.782;2023-04-06T07:44:43;96041.91;;;9.71;100.00
21658;BME280;10990;48.174;9.782;2023-04-06T07:47:11;96032.38;;;9.99;100.00
21658;BME280;10990;48.174;9.782;2023-04-06T07:49:37;96026.53;;;11.40;100.00
21658;BME280;10990;48.174;9.782;2023-04-06T07:52:05;96026.69;;;11.01;100.00
21658;BME280;10990;48.174;9.782;2023-04-06T07:54:34;96025.53;;;11.04;100.00
21658;BME280;10990;48.174;9.782;2023-04-06T07:57:01;96030.47;;;10.69;100.00
21658;BME280;10990;48.174;9.782;2023-04-06T07:59:27;96032.97;;;10.13;100.00
21658;BME280;10990;48.174;9.782;2023-04-06T08:01:54;96021.41;;;11.38;100.00
21658;BME280;10990;48.174;9.782;2023-04-06T08:04:21;96031.84;;;10.83;98.31
21658;BME280;10990;48.174;9.782;2023-04-06T08:06:48;96018.81;;;12.11;94.33
21658;BME280;10990;48.174;9.782;2023-04-06T08:09:15;96015.63;;;12.44;86.71
21658;BME280;10990;48.174;9.782;2023-04-06T08:11:43;96016.75;;;12.41;87.39
21658;BME280;10990;48.174;9.782;2023-04-06T08:14:11;96015.63;;;12.44;86.32
21658;BME280;10990;48.174;9.782;2023-04-06T08:16:38;96015.66;;;12.88;89.16
21658;BME280;10990;48.174;9.782;2023-04-06T08:19:05;96020.06;;;12.61;82.36
21658;BME280;10990;48.174;9.782;2023-04-06T08:21:34;96016.53;;;12.17;85.01
21658;BME280;10990;48.174;9.782;2023-04-06T08:24:02;96016.59;;;13.05;85.41
21658;BME280;10990;48.174;9.782;2023-04-06T08:26:29;96018.09;;;11.92;82.25
21658;BME280;10990;48.174;9.782;2023-04-06T08:28:57;96015.63;;;12.44;82.47
21658;BME280;10990;48.174;9.782;2023-04-06T08:31:24;96014.38;;;13.18;81.21
21658;BME280;10990;48.174;9.782;2023-04-06T08:33:51;96006.22;;;12.49;77.14
21658;BME280;10990;48.174;9.782;2023-04-06T08:36:18;96024.91;;;11.66;83.78
21658;BME280;10990;48.174;9.782;2023-04-06T08:38:48;96026.09;;;12.89;83.09
21658;BME280;10990;48.174;9.782;2023-04-06T08:41:16;96016.28;;;13.08;77.16
21658;BME280;10990;48.174;9.782;2023-04-06T08:43:46;96006.88;;;13.82;72.82
21658;BME280;10990;48.174;9.782;2023-04-06T08:46:15;96001.34;;;14.42;69.98
21658;BME280;10990;48.174;9.782;2023-04-06T08:48:43;96001.56;;;14.73;67.80
21658;BME280;10990;48.174;9.782;2023-04-06T08:51:10;95999.81;;;14.15;69.28
21658;BME280;10990;48.174;9.782;2023-04-06T08:53:38;96002.50;;;14.23;67.67
21658;BME280;10990;48.174;9.782;2023-04-06T08:56:05;96008.56;;;13.22;69.99
21658;BME280;10990;48.174;9.782;2023-04-06T08:58:35;96007.81;;;13.30;70.45
21658;BME280;10990;48.174;9.782;2023-04-06T09:01:07;95993.97;;;14.03;62.89
21658;BME280;10990;48.174;9.782;2023-04-06T09:03:38;95998.38;;;14.86;65.87
21658;BME280;10990;48.174;9.782;2023-04-06T09:06:05;95979.88;;;15.73;61.40
21658;BME280;10990;48.174;9.782;2023-04-06T09:08:33;95976.84;;;16.07;60.13
21658;BME280;10990;48.174;9.782;2023-04-06T09:11:00;95975.34;;;16.59;58.36
21658;BME280;10990;48.174;9.782;2023-04-06T09:13:27;95974.16;;;15.84;58.32
21658;BME280;10990;48.174;9.782;2023-04-06T09:16:01;95977.63;;;15.85;57.11
21658;BME280;10990;48.174;9.782;2023-04-06T09:18:29;95989.69;;;15.00;58.67
21658;BME280;10990;48.174;9.782;2023-04-06T09:21:00;95986.88;;;15.02;58.57
21658;BME280;10990;48.174;9.782;2023-04-06T09:23:27;95978.09;;;15.57;57.01
21658;BME280;10990;48.174;9.782;2023-04-06T09:26:05;95967.56;;;17.10;54.56
21658;BME280;10990;48.174;9.782;2023-04-06T09:28:41;95961.94;;;17.20;51.59
21658;BME280;10990;48.174;9.782;2023-04-06T09:31:08;95962.91;;;16.66;48.73
21658;BME280;10990;48.174;9.782;2023-04-06T09:33:37;95964.69;;;16.97;50.54
21658;BME280;10990;48.174;9.782;2023-04-06T09:36:06;95968.88;;;15.99;49.61
21658;BME280;10990;48.174;9.782;2023-04-06T09:38:36;95960.88;;;16.91;50.56
21658;BME280;10990;48.174;9.782;2023-04-06T09:41:03;95969.94;;;17.05;47.72
21658;BME280;10990;48.174;9.782;2023-04-06T09:43:31;95964.13;;;16.87;49.92
21658;BME280;10990;48.174;9.782;2023-04-06T09:46:00;95963.25;;;16.48;46.47
21658;BME280;10990;48.174;9.782;2023-04-06T09:48:31;95981.59;;;14.53;50.34
21658;BME280;10990;48.174;9.782;2023-04-06T09:51:00;95988.75;;;13.35;52.95
21658;BME280;10990;48.174;9.782;2023-04-06T09:53:31;95958.97;;;16.39;49.58
21658;BME280;10990;48.174;9.782;2023-04-06T09:56:02;95952.16;;;16.13;48.46
21658;BME280;10990;48.174;9.782;2023-04-06T09:58:34;95936.97;;;17.13;46.12
21658;BME280;10990;48.174;9.782;2023-04-06T10:01:07;95945.28;;;17.18;45.41
21658;BME280;10990;48.174;9.782;2023-04-06T10:03:43;95943.97;;;17.43;43.91
21658;BME280;10990;48.174;9.782;2023-04-06T10:06:13;95948.78;;;17.33;47.08
21658;BME280;10990;48.174;9.782;2023-04-06T10:08:44;95935.53;;;17.76;46.42
21658;BME280;10990;48.174;9.782;2023-04-06T10:11:12;95944.25;;;17.63;47.32
21658;BME280;10990;48.174;9.782;2023-04-06T10:13:39;95936.34;;;17.40;45.17
21658;BME280;10990;48.174;9.782;2023-04-06T10:16:07;95942.06;;;17.37;46.49
21658;BME280;10990;48.174;9.782;2023-04-06T10:18:35;95940.63;;;16.59;45.18
21658;BME280;10990;48.174;9.782;2023-04-06T10:21:06;95934.09;;;17.88;45.45
21658;BME280;10990;48.174;9.782;2023-04-06T10:23:37;95935.94;;;17.14;43.11
21658;BME280;10990;48.174;9.782;2023-04-06T10:26:13;95937.44;;;17.46;44.64
21658;BME280;10990;48.174;9.782;2023-04-06T10:28:43;95927.75;;;17.96;45.40
21658;BME280;10990;48.174;9.782;2023-04-06T10:31:10;95930.69;;;17.50;45.11
21658;BME280;10990;48.174;9.782;2023-04-06T10:33:37;95928.13;;;18.08;45.40
21658;BME280;10990;48.174;9.782;2023-04-06T10:36:11;95930.28;;;17.68;44.45
21658;BME280;10990;48.174;9.782;2023-04-06T10:38:39;95935.22;;;17.05;42.87
21658;BME280;10990;48.174;9.782;2023-04-06T10:41:08;95923.28;;;18.18;44.14
21658;BME280;10990;48.174;9.782;2023-04-06T10:43:36;95923.06;;;17.98;44.24
21658;BME280;10990;48.174;9.782;2023-04-06T10:46:05;95923.69;;;17.49;40.35
21658;BME280;10990;48.174;9.782;2023-04-06T10:48:39;95926.97;;;16.77;42.64
21658;BME280;10990;48.174;9.782;2023-04-06T10:51:10;95928.63;;;17.82;45.56
21658;BME280;10990;48.174;9.782;2023-04-06T10:53:38;95915.06;;;18.20;43.50
21658;BME280;10990;48.174;9.782;2023-04-06T10:56:11;95914.25;;;17.83;44.06
21658;BME280;10990;48.174;9.782;2023-04-06T10:58:38;95927.09;;;17.58;44.13
21658;BME280;10990;48.174;9.782;2023-04-06T11:01:05;95927.56;;;17.02;43.30
21658;BME280;10990;48.174;9.782;2023-04-06T11:03:42;95930.75;;;16.83;45.76
21658;BME280;10990;48.174;9.782;2023-04-06T11:06:09;95929.78;;;16.38;46.59
21658;BME280;10990;48.174;9.782;2023-04-06T11:08:37;95935.66;;;15.79;48.80
21658;BME280;10990;48.174;9.782;2023-04-06T11:11:06;95924.16;;;16.09;49.75
21658;BME280;10990;48.174;9.782;2023-04-06T11:13:39;95937.84;;;15.75;49.37
21658;BME280;10990;48.174;9.782;2023-04-06T11:16:11;95929.03;;;15.75;46.97
21658;BME280;10990;48.174;9.782;2023-04-06T11:18:45;95934.78;;;15.47;51.41
21658;BME280;10990;48.174;9.782;2023-04-06T11:21:12;95932.16;;;14.75;52.70
21658;BME280;10990;48.174;9.782;2023-04-06T11:23:39;95922.28;;;15.00;53.16
21658;BME280;10990;48.174;9.782;2023-04-06T11:26:10;95926.50;;;14.78;51.85
21658;BME280;10990;48.174;9.782;2023-04-06T11:28:39;95924.84;;;14.20;51.91
21658;BME280;10990;48.174;9.782;2023-04-06T11:31:09;95932.25;;;12.72;52.25
21658;BME280;10990;48.174;9.782;2023-04-06T11:33:36;95931.34;;;13.50;54.17
21658;BME280;10990;48.174;9.782;2023-04-06T11:36:05;95929.56;;;13.24;54.16
21658;BME280;10990;48.174;9.782;2023-04-06T11:38:33;95920.81;;;13.99;52.83
21658;BME280;10990;48.174;9.782;2023-04-06T11:41:01;95918.53;;;14.45;50.77
21658;BME280;10990;48.174;9.782;2023-04-06T11:43:29;95912.66;;;13.84;51.04
21658;BME280;10990;48.174;9.782;2023-04-06T11:46:02;95914.63;;;13.66;53.49
21658;BME280;10990;48.174;9.782;2023-04-06T11:48:29;95906.38;;;14.18;53.39
21658;BME280;10990;48.174;9.782;2023-04-06T11:50:56;95898.06;;;14.29;52.04
21658;BME280;10990;48.174;9.782;2023-04-06T11:53:26;95900.06;;;14.11;52.15
21658;BME280;10990;48.174;9.782;2023-04-06T11:55:53;95881.75;;;14.24;54.49
21658;BME280;10990;48.174;9.782;2023-04-06T11:58:20;95904.72;;;14.17;54.44
21658;BME280;10990;48.174;9.782;2023-04-06T12:00:47;95902.06;;;14.25;53.63
21658;BME280;10990;48.174;9.782;2023-04-06T12:03:15;95891.38;;;14.74;53.24
21658;BME280;10990;48.174;9.782;2023-04-06T12:05:43;95894.91;;;14.50;50.95
21658;BME280;10990;48.174;9.782;2023-04-06T12:08:10;95893.03;;;14.84;53.66
21658;BME280;10990;48.174;9.782;2023-04-06T12:10:37;95891.91;;;14.70;50.57
21658;BME280;10990;48.174;9.782;2023-04-06T12:13:03;95887.91;;;14.66;51.08
21658;BME280;10990;48.174;9.782;2023-04-06T12:15:30;95895.22;;;14.06;52.56
21658;BME280;10990;48.174;9.782;2023-04-06T12:17:57;95891.75;;;14.55;52.14
21658;BME280;10990;48.174;9.782;2023-04-06T12:20:25;95886.41;;;13.89;49.04
21658;BME280;10990;48.174;9.782;2023-04-06T12:22:52;95892.38;;;12.90;51.02
21658;BME280;10990;48.174;9.782;2023-04-06T12:25:20;95884.84;;;13.46;50.49
21658;BME280;10990;48.174;9.782;2023-04-06T12:27:46;95884.69;;;13.13;50.97
21658;BME280;10990;48.174;9.782;2023-04-06T12:30:14;95873.09;;;13.81;50.58
21658;BME280;10990;48.174;9.782;2023-04-06T12:32:41;95869.81;;;14.20;50.22
21658;BME280;10990;48.174;9.782;2023-04-06T12:35:08;95871.47;;;14.54;51.83
21658;BME280;10990;48.174;9.782;2023-04-06T12:37:38;95869.94;;;14.43;51.64
21658;BME280;10990;48.174;9.782;2023-04-06T12:40:06;95870.13;;;14.42;48.75
21658;BME280;10990;48.174;9.782;2023-04-06T12:42:35;95870.28;;;14.48;50.73
21658;BME280;10990;48.174;9.782;2023-04-06T12:45:03;95860.66;;;14.31;50.26
21658;BME280;10990;48.174;9.782;2023-04-06T12:47:30;95877.63;;;14.13;51.80
21658;BME280;10990;48.174;9.782;2023-04-06T12:49:56;95861.97;;;14.27;49.48
21658;BME280;10990;48.174;9.782;2023-04-06T12:52:23;95876.47;;;14.00;50.55
21658;BME280;10990;48.174;9.782;2023-04-06T12:54:52;95866.09;;;13.64;49.45
21658;BME280;10990;48.174;9.782;2023-04-06T12:57:19;95860.97;;;13.71;48.57
21658;BME280;10990;48.174;9.782;2023-04-06T12:59:45;95863.28;;;13.74;50.67
21658;BME280;10990;48.174;9.782;2023-04-06T13:02:12;95864.63;;;13.70;51.21
21658;BME280;10990;48.174;9.782;2023-04-06T13:04:39;95870.41;;;13.57;50.05